Time;durP1;ratioP1;P1;durP2;ratioP2;P2;SDS_P1;SDS_P2;PMS_P1;PMS_P2;Temp;Humidity;BMP_temperature;BMP_pressure;BME280_temperature;BME280_humidity;BME280_pressure;Samples;Min_cycle;Max_cycle;Signal;HPM_P1;HPM_P2
2021/08/30 00:00:45;;;;;;;3.90;2.90;;;;;;;13.51;84.75;96803.02;116242;1181;59543;-70
2021/08/30 00:03:15;;;;;;;3.80;3.00;;;;;;;13.53;84.83;96807.39;116262;1181;71346;-66
2021/08/30 00:05:45;;;;;;;5.00;3.80;;;;;;;13.53;84.75;96808.84;116205;1182;68954;-65
2021/08/30 00:08:15;;;;;;;7.30;4.70;;;;;;;13.45;85.68;96822.33;116228;1182;68942;-66
2021/08/30 00:10:45;;;;;;;6.60;4.50;;;;;;;13.32;86.68;96829.98;116189;1181;59541;-66
2021/08/30 00:13:16;;;;;;;6.00;4.70;;;;;;;13.30;86.81;96836.72;116145;1183;59535;-66
2021/08/30 00:15:45;;;;;;;;;;;;;;;13.28;86.43;96843.35;116207;1182;71286;-64
2021/08/30 00:18:15;;;;;;;7.30;5.20;;;;;;;13.20;87.29;96844.20;116157;1182;68753;-64
2021/08/30 00:20:45;;;;;;;7.10;5.30;;;;;;;13.18;87.49;96846.80;116157;1183;69196;-68
2021/08/30 00:23:15;;;;;;;6.40;4.70;;;;;;;13.17;87.46;96843.43;116158;1182;59569;-67
2021/08/30 00:25:45;;;;;;;6.70;5.20;;;;;;;13.20;87.50;96840.02;116146;1184;59546;-65
2021/08/30 00:28:15;;;;;;;;;;;;;;;13.20;87.37;96840.14;116210;1183;71354;-65
2021/08/30 00:30:45;;;;;;;8.30;5.60;;;;;;;13.22;87.37;96844.59;116166;1184;69142;-65
2021/08/30 00:33:15;;;;;;;8.30;5.60;;;;;;;13.15;87.66;96851.11;116106;1184;68185;-65
2021/08/30 00:35:45;;;;;;;7.10;6.00;;;;;;;13.10;87.95;96853.13;116177;1182;59533;-66
2021/08/30 00:38:15;;;;;;;6.20;5.60;;;;;;;13.12;88.31;96854.56;116143;1179;59608;-65
2021/08/30 00:40:45;;;;;;;7.40;5.80;;;;;;;13.13;87.89;96849.02;116130;1182;70390;-65
2021/08/30 00:43:15;;;;;;;6.90;5.20;;;;;;;13.16;87.91;96847.35;116173;1183;69177;-67
2021/08/30 00:45:46;;;;;;;7.00;5.70;;;;;;;13.17;87.49;96848.13;116135;1182;68403;-65
2021/08/30 00:48:17;;;;;;;8.10;5.90;;;;;;;13.17;87.73;96855.66;116178;1182;59544;-67
2021/08/30 00:50:47;;;;;;;7.90;5.30;;;;;;;13.18;87.78;96850.50;116158;1181;59546;-66
2021/08/30 00:53:17;;;;;;;3.80;3.10;;;;;;;13.20;87.17;96845.56;116112;1182;71342;-66
2021/08/30 00:55:48;;;;;;;4.20;3.10;;;;;;;13.24;86.53;96834.79;116100;1183;68398;-66
2021/08/30 00:58:18;;;;;;;7.60;4.90;;;;;;;13.28;86.14;96830.09;116009;1179;69237;-66
2021/08/30 01:00:48;;;;;;;4.70;3.50;;;;;;;13.28;86.21;96823.23;116117;1182;59524;-68
2021/08/30 01:03:19;;;;;;;6.00;3.90;;;;;;;13.29;85.77;96828.05;116170;1179;59527;-67
2021/08/30 01:05:57;;;;;;;4.50;3.60;;;;;;;13.29;85.64;96829.23;116204;1178;71349;-67
2021/08/30 01:08:34;;;;;;;4.80;3.50;;;;;;;13.29;85.39;96822.08;116271;1182;68425;-68
2021/08/30 01:11:10;;;;;;;4.50;3.40;;;;;;;13.29;85.33;96821.91;116334;1179;69060;-66
2021/08/30 01:13:50;;;;;;;2.90;2.50;;;;;;;13.29;85.26;96816.33;116311;1178;59581;-68
2021/08/30 01:16:23;;;;;;;4.60;3.40;;;;;;;13.28;85.84;96814.52;116337;1181;59499;-65
2021/08/30 01:18:58;;;;;;;5.50;4.10;;;;;;;13.27;85.28;96812.86;116444;1178;70546;-68
2021/08/30 01:21:34;;;;;;;5.20;4.00;;;;;;;13.24;86.11;96817.25;116391;1181;69048;-68
2021/08/30 01:24:13;;;;;;;6.10;4.30;;;;;;;13.22;86.21;96820.21;116333;1181;68419;-67
2021/08/30 01:26:51;;;;;;;5.10;4.10;;;;;;;13.20;86.33;96825.63;116282;1181;60020;-65
2021/08/30 01:29:55;;;;;;;5.00;3.80;;;;;;;13.19;85.87;96829.41;116322;1179;59536;-66
2021/08/30 01:32:31;;;;;;;5.00;4.20;;;;;;;13.16;86.61;96834.42;116220;1182;70564;-67
2021/08/30 01:35:08;;;;;;;8.80;6.80;;;;;;;13.10;87.32;96839.19;116201;1181;68260;-66
2021/08/30 01:37:40;;;;;;;7.30;5.60;;;;;;;13.01;88.33;96839.70;116213;1177;69008;-68
2021/08/30 01:40:11;;;;;;;5.90;4.00;;;;;;;13.03;87.66;96835.66;116209;1181;59533;-65
2021/08/30 01:42:46;;;;;;;6.40;4.30;;;;;;;13.04;86.85;96824.05;116247;1181;59562;-66
2021/08/30 01:45:19;;;;;;;4.90;3.50;;;;;;;13.05;86.95;96816.91;116238;1181;71410;-65
2021/08/30 01:47:51;;;;;;;4.60;3.20;;;;;;;13.06;86.22;96808.39;116349;1178;69015;-66
2021/08/30 01:50:24;;;;;;;6.40;4.70;;;;;;;13.05;86.40;96817.05;116297;1181;69613;-69
2021/08/30 01:52:54;;;;;;;4.40;3.80;;;;;;;13.04;87.26;96832.41;116279;1180;59580;-65
2021/08/30 01:55:44;;;;;;;6.50;5.10;;;;;;;13.04;86.60;96836.05;116260;1182;59549;-65
2021/08/30 02:00:49;;;;;;;7.00;4.70;;;;;;;13.06;87.27;96831.15;116139;1181;68674;-65
2021/08/30 02:03:25;;;;;;;6.10;4.40;;;;;;;13.07;86.74;96826.70;116289;1181;69232;-65
2021/08/30 02:06:01;;;;;;;6.10;4.40;;;;;;;13.09;86.28;96831.44;116287;1182;59524;-65
2021/08/30 02:08:33;;;;;;;6.20;3.40;;;;;;;13.10;86.76;96840.57;116273;1182;59539;-70
2021/08/30 02:11:06;;;;;;;8.10;6.80;;;;;;;13.11;86.67;96843.50;116491;1176;71244;-67
2021/08/30 02:13:36;;;;;;;5.40;4.00;;;;;;;13.06;87.35;96841.65;116307;1181;67528;-68
2021/08/30 02:16:06;;;;;;;4.90;3.50;;;;;;;13.07;86.32;96838.96;116345;1181;69260;-65
2021/08/30 02:18:46;;;;;;;8.30;6.60;;;;;;;13.07;86.20;96841.21;116318;1181;59556;-68
2021/08/30 02:21:21;;;;;;;7.90;6.00;;;;;;;13.05;87.26;96841.70;116336;1181;59525;-65
2021/08/30 02:24:16;;;;;;;12.40;7.80;;;;;;;13.05;86.96;96844.36;116411;1180;71312;-65
2021/08/30 02:27:05;;;;;;;12.20;7.80;;;;;;;13.04;87.74;96846.02;116074;1182;69214;-65
2021/08/30 02:29:50;;;;;;;12.30;8.50;;;;;;;12.98;88.17;96849.34;116403;1180;68283;-68
2021/08/30 02:32:22;;;;;;;12.30;8.80;;;;;;;12.99;87.90;96850.48;116353;1181;59503;-66
2021/08/30 02:34:56;;;;;;;8.70;6.30;;;;;;;12.98;88.19;96851.83;116192;1182;59585;-65
2021/08/30 02:37:30;;;;;;;6.00;4.20;;;;;;;13.00;87.68;96850.29;116311;1181;71345;-65
2021/08/30 02:40:02;;;;;;;10.20;8.50;;;;;;;13.01;87.62;96845.73;116232;1181;67463;-67
2021/08/30 02:42:34;;;;;;;8.10;5.70;;;;;;;12.99;88.35;96844.90;116433;1181;69211;-67
2021/08/30 02:45:07;;;;;;;8.40;5.70;;;;;;;13.00;87.19;96841.14;116283;1181;59537;-68
2021/08/30 02:47:39;;;;;;;6.80;5.10;;;;;;;13.01;86.81;96837.52;116362;1181;59542;-65
2021/08/30 02:50:10;;;;;;;8.20;7.20;;;;;;;13.02;86.45;96833.61;116371;1178;70529;-65
2021/08/30 02:52:41;;;;;;;9.90;6.30;;;;;;;13.01;86.40;96835.61;116489;1181;69180;-68
2021/08/30 02:55:11;;;;;;;7.90;5.70;;;;;;;13.00;86.38;96835.20;116321;1181;68143;-67
2021/08/30 02:57:43;;;;;;;6.20;4.70;;;;;;;13.00;86.09;96841.34;116295;1181;59520;-69
2021/08/30 03:00:14;;;;;;;6.40;4.60;;;;;;;13.00;85.98;96845.20;116369;1178;59550;-65
2021/08/30 03:02:45;;;;;;;5.60;4.40;;;;;;;13.00;85.70;96845.67;116288;1181;71354;-66
2021/08/30 03:05:15;;;;;;;7.60;5.50;;;;;;;13.01;85.43;96848.37;116317;1181;69156;-66
2021/08/30 03:07:47;;;;;;;6.00;4.60;;;;;;;13.02;85.50;96843.91;116410;1181;69271;-68
2021/08/30 03:10:17;;;;;;;5.50;4.10;;;;;;;13.03;85.22;96847.71;116050;1183;59521;-65
2021/08/30 03:12:53;;;;;;;6.80;5.30;;;;;;;13.04;85.09;96850.41;116196;1181;59613;-65
2021/08/30 03:15:25;;;;;;;7.40;5.50;;;;;;;13.05;84.89;96853.11;116303;1181;71329;-67
2021/08/30 03:17:56;;;;;;;8.20;6.40;;;;;;;13.06;84.93;96851.63;116255;1179;69165;-66
2021/08/30 03:20:30;;;;;;;8.70;6.30;;;;;;;13.07;85.15;96856.48;116319;1181;68427;-66
2021/08/30 03:23:02;;;;;;;11.80;9.40;;;;;;;13.05;85.52;96858.23;116281;1181;59543;-69
2021/08/30 03:25:34;;;;;;;6.70;5.30;;;;;;;13.03;85.94;96856.10;116272;1181;59555;-66
2021/08/30 03:28:09;;;;;;;7.40;6.50;;;;;;;13.05;85.36;96852.92;116325;1181;71377;-66
2021/08/30 03:30:39;;;;;;;9.90;8.50;;;;;;;13.06;85.25;96856.87;116241;1178;68409;-66
2021/08/30 03:33:09;;;;;;;;;;;;;;;13.05;85.28;96856.92;116270;1181;68232;-69
2021/08/30 03:35:39;;;;;;;9.60;7.50;;;;;;;13.05;85.12;96857.54;116274;1182;59545;-66
2021/08/30 03:38:10;;;;;;;8.20;6.50;;;;;;;13.05;85.82;96860.52;116227;1181;59524;-65
2021/08/30 03:40:42;;;;;;;7.40;6.10;;;;;;;13.04;85.67;96869.50;116226;1178;71319;-65
2021/08/30 03:43:12;;;;;;;7.80;6.30;;;;;;;13.04;85.98;96875.78;116244;1182;68697;-67
2021/08/30 03:45:43;;;;;;;6.10;4.50;;;;;;;13.04;85.27;96875.13;116113;1181;69008;-66
2021/08/30 03:48:15;;;;;;;10.10;7.70;;;;;;;13.05;85.05;96883.59;116230;1181;59547;-65
2021/08/30 03:50:45;;;;;;;8.90;7.30;;;;;;;13.04;85.09;96889.80;116220;1181;59527;-67
2021/08/30 03:53:18;;;;;;;8.50;7.20;;;;;;;13.03;84.98;96889.33;116169;1181;71132;-69
2021/08/30 03:55:48;;;;;;;10.30;7.30;;;;;;;13.04;84.98;96894.69;116261;1182;69365;-70
2021/08/30 03:58:20;;;;;;;9.00;6.80;;;;;;;13.05;84.97;96892.30;116335;1178;68231;-66
2021/08/30 04:00:51;;;;;;;7.00;5.80;;;;;;;13.06;85.06;96890.10;116293;1181;59543;-68
2021/08/30 04:03:23;;;;;;;8.30;6.90;;;;;;;13.08;85.24;96895.83;116213;1177;59534;-67
2021/08/30 04:05:53;;;;;;;14.00;10.30;;;;;;;13.10;86.04;96898.33;116273;1181;71349;-68
2021/08/30 04:08:23;;;;;;;11.50;9.30;;;;;;;13.09;86.90;96905.76;116219;1181;69201;-66
2021/08/30 04:10:53;;;;;;;;;;;;;;;13.09;86.85;96902.83;116230;1180;69075;-65
2021/08/30 04:13:22;;;;;;;11.30;8.70;;;;;;;13.08;87.07;96905.67;116173;1177;59548;-67
2021/08/30 04:15:52;;;;;;;10.30;6.20;;;;;;;13.09;86.68;96904.69;116254;1177;59609;-64
2021/08/30 04:18:22;;;;;;;;;;;;;;;13.13;85.79;96905.90;116262;1181;71347;-65
2021/08/30 04:20:52;;;;;;;12.20;8.40;;;;;;;13.16;86.03;96909.11;116216;1181;69192;-66
2021/08/30 04:23:21;;;;;;;14.70;10.00;;;;;;;13.17;86.01;96911.14;116292;1181;69253;-65
2021/08/30 04:25:51;;;;;;;10.30;7.60;;;;;;;13.20;86.42;96910.16;116260;1180;59584;-67
2021/08/30 04:28:22;;;;;;;10.80;9.00;;;;;;;13.23;85.82;96916.44;116179;1180;59552;-66
2021/08/30 04:30:53;;;;;;;15.50;11.00;;;;;;;13.25;86.30;96918.31;116241;1181;70592;-68
2021/08/30 04:33:23;;;;;;;14.60;10.10;;;;;;;13.27;86.45;96918.17;116222;1181;69151;-71
2021/08/30 04:35:52;;;;;;;15.40;11.30;;;;;;;13.30;86.69;96920.88;116314;1178;69255;-66
2021/08/30 04:38:21;;;;;;;17.80;13.30;;;;;;;13.31;87.23;96927.96;116127;1181;59542;-66
2021/08/30 04:40:51;;;;;;;14.50;10.70;;;;;;;13.30;87.58;96927.67;116219;1178;59518;-66
2021/08/30 04:43:22;;;;;;;12.80;8.40;;;;;;;13.30;87.59;96930.11;116185;1181;70854;-72
2021/08/30 04:45:52;;;;;;;15.60;10.50;;;;;;;13.29;87.02;96929.30;116264;1181;68990;-71
2021/08/30 04:48:21;;;;;;;10.10;8.40;;;;;;;13.24;87.36;96929.81;116211;1181;68412;-69
2021/08/30 04:50:50;;;;;;;7.40;5.90;;;;;;;13.26;87.16;96932.02;116208;1180;59540;-66
2021/08/30 04:53:19;;;;;;;8.40;7.20;;;;;;;13.31;86.80;96931.93;116262;1181;59534;-66
2021/08/30 04:55:48;;;;;;;9.50;7.40;;;;;;;13.36;86.87;96932.42;116167;1181;71353;-67
2021/08/30 04:58:18;;;;;;;7.70;6.40;;;;;;;13.39;86.62;96933.83;116185;1181;68605;-68
2021/08/30 05:00:48;;;;;;;8.10;6.30;;;;;;;13.46;86.43;96933.92;116178;1181;68056;-66
2021/08/30 05:03:17;;;;;;;8.80;7.20;;;;;;;13.53;86.32;96932.50;116240;1180;59556;-67
2021/08/30 05:05:48;;;;;;;7.50;6.10;;;;;;;13.59;85.72;96930.58;116141;1182;59544;-69
2021/08/30 05:08:19;;;;;;;6.70;5.90;;;;;;;13.69;85.71;96929.48;116195;1178;70672;-69
2021/08/30 05:10:48;;;;;;;12.10;11.00;;;;;;;13.82;85.55;96928.66;116351;1178;68382;-69
2021/08/30 05:13:17;;;;;;;7.70;6.90;;;;;;;13.92;84.95;96932.81;116407;1181;67588;-67
2021/08/30 05:15:46;;;;;;;6.10;5.10;;;;;;;14.02;84.58;96928.02;116456;1181;59536;-66
2021/08/30 05:18:16;;;;;;;5.60;4.30;;;;;;;14.20;84.27;96930.42;116306;1181;59546;-64
2021/08/30 05:20:49;;;;;;;5.40;4.40;;;;;;;14.52;83.91;96931.14;116309;1180;70596;-69
2021/08/30 05:23:19;;;;;;;7.10;5.70;;;;;;;14.82;82.88;96931.52;116347;1182;69302;-65
2021/08/30 05:25:48;;;;;;;7.20;5.40;;;;;;;15.04;82.12;96924.79;116486;1181;69141;-67
2021/08/30 05:28:17;;;;;;;6.30;4.50;;;;;;;15.22;82.09;96920.92;116385;1178;59562;-69
2021/08/30 05:30:47;;;;;;;6.50;4.90;;;;;;;15.40;79.74;96915.77;116438;1180;59569;-69
2021/08/30 05:33:18;;;;;;;5.00;4.00;;;;;;;15.58;78.60;96916.81;116354;1181;69919;-69
2021/08/30 05:35:47;;;;;;;4.60;4.00;;;;;;;15.91;78.68;96925.74;116369;1181;68493;-68
2021/08/30 05:38:17;;;;;;;4.20;3.40;;;;;;;16.49;77.97;96926.28;116377;1181;69184;-65
2021/08/30 05:40:46;;;;;;;4.90;4.00;;;;;;;17.06;74.05;96928.88;116322;1180;59503;-68
2021/08/30 05:43:16;;;;;;;5.40;4.30;;;;;;;17.16;71.26;96934.16;116357;1182;59619;-69
2021/08/30 05:45:45;;;;;;;5.20;3.70;;;;;;;16.86;71.18;96930.34;116372;1181;70596;-69
2021/08/30 05:48:17;;;;;;;6.40;3.20;;;;;;;16.90;73.10;96931.17;116392;1181;68292;-68
2021/08/30 05:50:47;;;;;;;;;;;;;;;16.94;73.07;96933.71;116347;1181;68860;-68
2021/08/30 05:53:19;;;;;;;4.60;2.80;;;;;;;17.03;74.63;96932.09;116347;1181;59500;-68
2021/08/30 05:55:49;;;;;;;4.30;2.90;;;;;;;17.20;74.18;96936.77;116231;1182;59546;-65
2021/08/30 05:58:21;;;;;;;4.80;3.20;;;;;;;17.34;74.66;96938.56;116296;1180;70377;-68
2021/08/30 06:00:50;;;;;;;4.20;3.60;;;;;;;17.43;72.71;96940.44;116310;1181;69163;-67
2021/08/30 06:03:20;;;;;;;4.00;2.70;;;;;;;17.44;73.01;96939.98;116363;1182;68192;-67
2021/08/30 06:05:49;;;;;;;2.70;2.20;;;;;;;17.46;73.98;96942.23;116527;1179;59551;-67
2021/08/30 06:08:19;;;;;;;5.50;4.10;;;;;;;17.49;73.88;96943.94;116441;1177;59531;-67
2021/08/30 06:10:48;;;;;;;4.40;3.80;;;;;;;17.34;70.94;96942.64;116290;1178;69648;-66
2021/08/30 06:13:19;;;;;;;3.70;2.90;;;;;;;17.22;71.93;96940.92;116410;1178;68423;-70
2021/08/30 06:15:48;;;;;;;6.50;4.30;;;;;;;17.16;71.58;96942.85;116309;1180;68497;-69
2021/08/30 06:18:17;;;;;;;4.40;3.20;;;;;;;17.04;71.50;96941.09;116394;1181;59542;-69
2021/08/30 06:20:47;;;;;;;7.10;4.40;;;;;;;17.08;72.10;96942.80;116382;1181;59478;-66
2021/08/30 06:23:18;;;;;;;4.90;4.40;;;;;;;16.83;71.14;96941.72;116456;1178;70369;-69
2021/08/30 06:25:47;;;;;;;4.70;3.40;;;;;;;16.92;71.02;96940.64;116510;1181;69162;-66
2021/08/30 06:28:16;;;;;;;5.70;4.40;;;;;;;17.60;71.25;96940.56;116465;1176;68415;-69
2021/08/30 06:30:45;;;;;;;4.80;4.20;;;;;;;18.24;68.28;96939.08;116435;1179;59602;-67
2021/08/30 06:33:14;;;;;;;3.70;3.10;;;;;;;19.01;65.42;96940.61;116503;1177;59540;-65
2021/08/30 06:35:44;;;;;;;4.20;2.70;;;;;;;19.67;67.05;96937.27;116391;1181;70905;-66
2021/08/30 06:38:15;;;;;;;5.00;4.50;;;;;;;20.53;62.95;96934.95;116388;1181;68980;-70
2021/08/30 06:40:44;;;;;;;5.20;4.30;;;;;;;21.19;55.70;96935.41;116499;1181;68277;-71
2021/08/30 06:43:13;;;;;;;4.10;3.60;;;;;;;21.03;55.84;96936.17;116469;1178;59543;-68
2021/08/30 06:45:42;;;;;;;3.10;2.50;;;;;;;20.94;59.11;96938.05;116448;1178;59516;-66
2021/08/30 06:48:11;;;;;;;2.90;2.40;;;;;;;21.07;60.53;96938.17;116469;1177;71393;-66
2021/08/30 06:50:42;;;;;;;4.50;3.10;;;;;;;21.23;58.13;96942.92;116471;1181;69298;-70
2021/08/30 06:53:12;;;;;;;4.40;3.00;;;;;;;21.08;57.64;96944.77;116251;1182;69082;-69
2021/08/30 06:55:41;;;;;;;3.90;3.30;;;;;;;20.83;57.47;96941.81;116458;1178;59891;-68
2021/08/30 06:58:10;;;;;;;3.40;2.90;;;;;;;20.76;57.76;96939.85;116406;1178;59501;-65
2021/08/30 07:00:39;;;;;;;4.10;3.70;;;;;;;21.10;58.59;96941.53;116466;1181;71049;-66
2021/08/30 07:03:08;;;;;;;4.10;3.60;;;;;;;20.75;56.91;96942.05;116488;1181;68326;-66
2021/08/30 07:05:37;;;;;;;4.00;3.50;;;;;;;19.88;57.18;96946.23;116461;1181;69021;-68
2021/08/30 07:08:06;;;;;;;6.00;3.70;;;;;;;19.69;58.78;96950.65;116415;1179;59582;-66
2021/08/30 07:10:36;;;;;;;4.50;4.00;;;;;;;19.31;59.13;96950.99;116395;1182;59539;-68
2021/08/30 07:13:05;;;;;;;4.30;3.90;;;;;;;19.15;58.21;96952.23;116240;1181;70657;-66
2021/08/30 07:15:34;;;;;;;3.80;3.00;;;;;;;19.07;59.45;96953.57;116267;1181;69279;-65
2021/08/30 07:18:03;;;;;;;3.70;2.90;;;;;;;19.32;60.76;96955.87;116292;1181;68314;-66
2021/08/30 07:20:32;;;;;;;3.10;2.60;;;;;;;20.11;60.17;96955.54;116234;1181;59556;-69
2021/08/30 07:23:02;;;;;;;5.30;4.30;;;;;;;20.86;55.59;96955.98;116169;1178;59522;-66
2021/08/30 07:25:30;;;;;;;3.50;3.10;;;;;;;21.14;54.04;96955.00;116154;1182;71449;-67
2021/08/30 07:27:59;;;;;;;3.60;3.30;;;;;;;21.18;51.90;96955.64;116244;1178;68448;-70
2021/08/30 07:30:28;;;;;;;5.50;3.60;;;;;;;20.45;54.18;96958.59;116399;1178;68282;-66
2021/08/30 07:32:57;;;;;;;2.90;2.40;;;;;;;20.17;54.99;96961.94;116141;1181;59501;-70
2021/08/30 07:35:27;;;;;;;4.80;4.00;;;;;;;20.32;56.05;96965.83;116408;1177;59499;-69
2021/08/30 07:37:56;;;;;;;4.40;3.20;;;;;;;20.28;56.51;96970.05;116223;1178;71449;-68
2021/08/30 07:40:25;;;;;;;4.10;3.60;;;;;;;20.49;56.72;96964.35;116365;1178;67548;-65
2021/08/30 07:42:54;;;;;;;4.90;3.50;;;;;;;19.58;58.37;96970.02;116251;1178;68646;-65
2021/08/30 07:45:24;;;;;;;7.40;4.10;;;;;;;19.41;58.69;96969.45;116303;1182;59494;-67
2021/08/30 07:47:53;;;;;;;4.20;3.80;;;;;;;18.86;60.40;96971.70;116266;1182;59518;-65
2021/08/30 07:50:22;;;;;;;4.50;4.10;;;;;;;18.41;62.36;96972.05;116256;1178;71289;-67
2021/08/30 07:52:51;;;;;;;4.80;4.10;;;;;;;18.52;62.38;96975.66;116274;1181;69326;-65
2021/08/30 07:55:20;;;;;;;5.00;4.10;;;;;;;18.27;62.02;96979.00;116293;1181;67644;-68
2021/08/30 07:57:49;;;;;;;4.50;3.80;;;;;;;18.20;62.38;96975.55;116253;1178;59535;-67
2021/08/30 08:00:19;;;;;;;7.30;4.20;;;;;;;18.58;61.12;96978.02;116143;1182;59498;-66
2021/08/30 08:02:48;;;;;;;4.00;3.10;;;;;;;18.42;61.94;96980.66;116152;1182;70960;-67
2021/08/30 08:05:18;;;;;;;;;;;;;;;18.76;60.91;96979.76;116181;1182;69279;-66
2021/08/30 08:07:47;;;;;;;4.50;3.50;;;;;;;19.11;59.81;96983.14;116196;1181;68724;-67
2021/08/30 08:10:16;;;;;;;5.10;4.60;;;;;;;19.49;58.97;96984.06;116381;1178;59548;-66
2021/08/30 08:12:45;;;;;;;5.10;4.50;;;;;;;19.36;58.34;96980.41;116264;1181;59540;-66
2021/08/30 08:15:14;;;;;;;4.10;3.50;;;;;;;19.03;59.68;96980.00;116280;1181;71391;-66
2021/08/30 08:17:43;;;;;;;5.10;4.50;;;;;;;18.85;60.53;96979.07;116015;1178;68289;-66
2021/08/30 08:20:14;;;;;;;5.20;4.20;;;;;;;18.59;61.55;96979.80;116222;1181;68471;-66
2021/08/30 08:22:44;;;;;;;4.40;3.40;;;;;;;18.73;59.65;96979.63;116190;1180;59538;-65
2021/08/30 08:25:14;;;;;;;3.70;3.30;;;;;;;19.06;59.16;96983.86;116199;1180;59546;-65
2021/08/30 08:27:43;;;;;;;4.70;4.10;;;;;;;19.19;58.65;96979.94;116185;1182;71406;-65
2021/08/30 08:30:13;;;;;;;6.10;4.60;;;;;;;18.46;59.96;96980.91;116227;1181;69072;-66
2021/08/30 08:32:42;;;;;;;4.60;4.20;;;;;;;18.68;59.85;96982.88;116192;1181;68490;-65
2021/08/30 08:35:12;;;;;;;3.30;2.60;;;;;;;18.88;59.83;96986.08;116172;1180;59543;-65
2021/08/30 08:37:41;;;;;;;5.00;3.00;;;;;;;19.72;57.77;96988.17;116204;1180;59554;-64
2021/08/30 08:40:12;;;;;;;2.60;2.30;;;;;;;20.07;55.15;96983.35;116187;1182;70595;-65
2021/08/30 08:42:42;;;;;;;3.90;3.50;;;;;;;20.35;54.35;96980.69;116299;1182;69693;-66
2021/08/30 08:45:14;;;;;;;4.20;3.60;;;;;;;20.18;54.06;96981.48;116251;1178;68442;-66
2021/08/30 08:47:45;;;;;;;4.10;3.60;;;;;;;19.68;54.16;96983.98;116282;1181;59546;-66
2021/08/30 08:50:19;;;;;;;4.40;3.50;;;;;;;19.39;54.25;96984.99;116295;1182;59541;-65
2021/08/30 08:52:48;;;;;;;3.30;2.20;;;;;;;19.69;54.40;96985.18;116363;1182;70792;-66
2021/08/30 08:55:17;;;;;;;2.40;1.90;;;;;;;20.32;54.05;96979.66;116234;1182;69020;-66
2021/08/30 08:57:46;;;;;;;2.30;1.80;;;;;;;20.73;52.88;96977.70;116355;1180;69053;-66
2021/08/30 09:00:16;;;;;;;3.40;2.20;;;;;;;20.43;54.36;96982.42;116407;1178;59562;-66
2021/08/30 09:02:49;;;;;;;2.60;1.80;;;;;;;19.84;54.82;96991.55;116351;1177;59546;-65
2021/08/30 09:05:25;;;;;;;3.00;2.20;;;;;;;19.69;53.80;96991.52;116349;1181;70659;-66
2021/08/30 09:07:54;;;;;;;3.10;2.40;;;;;;;18.89;56.10;96990.08;116216;1180;68237;-66
2021/08/30 09:10:26;;;;;;;2.10;1.70;;;;;;;18.96;56.98;96985.45;116285;1177;69176;-68
2021/08/30 09:13:08;;;;;;;4.00;2.80;;;;;;;19.06;57.41;96986.67;116279;1181;59556;-66
2021/08/30 09:15:41;;;;;;;4.50;2.70;;;;;;;19.25;57.01;96987.19;116363;1181;59607;-67
2021/08/30 09:18:10;;;;;;;4.70;3.30;;;;;;;18.97;57.81;96985.11;116332;1182;71165;-66
2021/08/30 09:20:39;;;;;;;3.70;2.60;;;;;;;19.32;57.22;96984.45;116287;1181;69398;-67
2021/08/30 09:23:15;;;;;;;4.00;2.80;;;;;;;19.10;56.94;96989.83;116270;1181;69504;-67
2021/08/30 09:25:45;;;;;;;3.20;2.50;;;;;;;18.65;57.13;96994.15;116320;1181;59480;-67
2021/08/30 09:28:13;;;;;;;;;;;;;;;18.82;57.70;96993.86;116147;1178;59497;-66
2021/08/30 09:30:53;;;;;;;3.40;2.30;;;;;;;19.38;56.65;96990.96;116317;1178;71564;-66
2021/08/30 09:33:22;;;;;;;;;;;;;;;19.83;55.15;96992.29;116307;1182;68383;-67
2021/08/30 09:35:59;;;;;;;3.20;2.70;;;;;;;19.57;55.58;96993.92;116261;1178;69257;-65
2021/08/30 09:38:37;;;;;;;3.90;3.50;;;;;;;19.35;56.61;96995.96;116320;1177;59546;-65
2021/08/30 09:41:08;;;;;;;3.80;3.00;;;;;;;19.45;56.18;96993.70;116299;1182;59482;-65
2021/08/30 09:43:37;;;;;;;3.00;2.40;;;;;;;19.97;54.70;96991.73;116449;1181;71143;-66
2021/08/30 09:46:08;;;;;;;3.30;3.00;;;;;;;20.47;53.27;96991.52;116327;1177;69228;-66
2021/08/30 09:48:43;;;;;;;5.20;3.50;;;;;;;20.71;53.11;96990.58;116377;1177;68559;-67
2021/08/30 09:51:13;;;;;;;4.30;3.30;;;;;;;20.42;53.03;96994.54;116354;1179;59541;-67
2021/08/30 09:53:43;;;;;;;4.50;3.10;;;;;;;19.48;55.09;97000.98;116312;1179;59542;-66
2021/08/30 09:56:12;;;;;;;3.90;2.80;;;;;;;20.04;52.91;97000.69;116504;1180;71364;-67
2021/08/30 09:58:45;;;;;;;4.20;3.20;;;;;;;20.37;52.65;96993.50;116354;1180;68266;-66
2021/08/30 10:01:18;;;;;;;4.00;2.80;;;;;;;20.27;52.47;96996.37;116344;1180;69952;-68
2021/08/30 10:03:48;;;;;;;3.90;3.40;;;;;;;19.76;53.03;96997.77;116365;1180;59540;-65
2021/08/30 10:06:18;;;;;;;4.10;3.60;;;;;;;19.76;54.02;96995.23;116431;1176;59522;-65
2021/08/30 10:08:47;;;;;;;4.10;3.70;;;;;;;19.66;53.32;96995.94;116378;1180;71624;-66
2021/08/30 10:11:18;;;;;;;5.20;4.50;;;;;;;19.65;53.32;96994.98;116260;1181;68756;-67
2021/08/30 10:13:47;;;;;;;5.60;4.80;;;;;;;18.95;55.45;97000.29;116379;1177;69395;-66
2021/08/30 10:16:19;;;;;;;6.80;5.10;;;;;;;18.66;56.00;96994.11;116338;1178;59529;-67
2021/08/30 10:18:49;;;;;;;4.20;3.60;;;;;;;18.69;57.07;96989.12;116476;1176;59589;-65
2021/08/30 10:21:19;;;;;;;3.40;3.10;;;;;;;18.98;55.95;96991.36;116468;1180;70438;-66
2021/08/30 10:23:49;;;;;;;6.80;3.90;;;;;;;18.88;55.39;96990.02;116350;1177;69143;-66
2021/08/30 10:26:18;;;;;;;4.10;3.00;;;;;;;19.05;54.30;96992.11;116342;1178;69036;-65
2021/08/30 10:28:48;;;;;;;4.80;4.20;;;;;;;19.26;54.13;96989.89;116351;1180;59561;-66
2021/08/30 10:31:25;;;;;;;5.30;3.40;;;;;;;19.40;54.18;96995.40;116337;1179;59548;-66
2021/08/30 10:33:56;;;;;;;4.20;3.00;;;;;;;19.46;52.73;96994.28;116421;1180;71390;-66
2021/08/30 10:36:28;;;;;;;4.40;3.20;;;;;;;19.55;52.75;96994.23;116373;1181;69279;-66
2021/08/30 10:38:57;;;;;;;3.70;3.10;;;;;;;19.48;52.51;96999.26;116399;1178;68490;-64
2021/08/30 10:41:43;;;;;;;4.80;4.40;;;;;;;19.55;52.03;96994.49;116384;1178;59549;-65
2021/08/30 10:44:21;;;;;;;4.80;4.40;;;;;;;19.48;52.21;96999.95;116410;1180;59533;-68
2021/08/30 10:46:54;;;;;;;4.50;3.50;;;;;;;19.37;52.49;97002.37;116296;1179;70869;-66
2021/08/30 10:49:32;;;;;;;2.90;2.50;;;;;;;19.52;50.91;97000.88;116300;1182;70213;-67
2021/08/30 10:52:12;;;;;;;2.50;2.00;;;;;;;20.37;49.32;96999.08;116366;1182;69249;-66
2021/08/30 10:54:53;;;;;;;2.90;2.60;;;;;;;21.03;47.06;96998.35;116388;1177;59519;-66
2021/08/30 10:57:36;;;;;;;2.50;2.10;;;;;;;21.30;47.02;96998.98;116289;1181;59536;-66
2021/08/30 11:00:08;;;;;;;3.90;2.80;;;;;;;22.10;45.59;97003.13;116326;1181;70673;-66
2021/08/30 11:02:45;;;;;;;2.90;2.20;;;;;;;22.54;44.53;97001.70;116445;1178;69217;-65
2021/08/30 11:05:24;;;;;;;2.50;2.00;;;;;;;24.01;41.63;97002.10;116337;1181;69549;-66
2021/08/30 11:07:53;;;;;;;2.30;2.10;;;;;;;25.37;39.85;96999.41;116355;1180;59543;-66
2021/08/30 11:10:25;;;;;;;2.30;1.60;;;;;;;26.59;37.83;96994.51;116242;1183;59537;-67
2021/08/30 11:12:58;;;;;;;2.70;2.10;;;;;;;26.93;33.79;96992.74;116388;1181;70609;-66
2021/08/30 11:15:34;;;;;;;3.20;2.30;;;;;;;25.80;34.61;96992.39;116430;1180;68276;-65
2021/08/30 11:18:04;;;;;;;2.60;1.80;;;;;;;24.76;36.87;96987.27;116328;1179;69118;-66
2021/08/30 11:20:33;;;;;;;3.60;2.60;;;;;;;24.95;37.85;96982.34;116435;1177;59542;-65
2021/08/30 11:23:12;;;;;;;3.00;2.60;;;;;;;24.98;37.56;96980.56;116456;1180;59548;-66
2021/08/30 11:25:42;;;;;;;2.30;2.00;;;;;;;23.95;38.70;96987.80;116457;1181;71463;-69
2021/08/30 11:28:30;;;;;;;5.00;2.30;;;;;;;23.84;38.08;96985.33;116417;1180;68980;-66
2021/08/30 11:30:59;;;;;;;2.90;1.90;;;;;;;23.54;39.47;96986.34;116370;1180;68070;-69
2021/08/30 11:33:28;;;;;;;3.00;2.50;;;;;;;23.68;38.90;96992.03;116282;1178;60012;-66
2021/08/30 11:36:00;;;;;;;3.00;2.10;;;;;;;23.44;39.27;96991.14;116459;1181;59631;-66
2021/08/30 11:38:29;;;;;;;3.20;2.40;;;;;;;23.59;38.65;96991.16;116342;1180;70774;-66
2021/08/30 11:41:07;;;;;;;2.60;2.20;;;;;;;23.59;38.58;96990.66;116324;1177;68662;-66
2021/08/30 11:43:36;;;;;;;3.80;2.30;;;;;;;22.82;40.29;96991.75;116384;1180;69374;-66
2021/08/30 11:46:08;;;;;;;3.70;2.60;;;;;;;22.59;40.61;96990.65;116341;1181;59537;-67
2021/08/30 11:48:38;;;;;;;3.30;2.70;;;;;;;22.40;40.60;96992.77;116357;1181;59545;-65